sensor_id;sensor_type;location;lat;lon;timestamp;P1;durP1;ratioP1;P2;durP2;ratioP2
73938;SDS011;62291;47.554;8.504;2024-03-07T00:02:16;38.78;;;23.77;;
73938;SDS011;62291;47.554;8.504;2024-03-07T00:04:43;37.17;;;22.83;;
73938;SDS011;62291;47.554;8.504;2024-03-07T00:07:09;39.97;;;24.35;;
73938;SDS011;62291;47.554;8.504;2024-03-07T00:09:35;40.80;;;24.63;;
73938;SDS011;62291;47.554;8.504;2024-03-07T00:12:01;39.83;;;23.67;;
73938;SDS011;62291;47.554;8.504;2024-03-07T00:14:27;37.33;;;23.67;;
73938;SDS011;62291;47.554;8.504;2024-03-07T00:16:54;34.15;;;22.00;;
73938;SDS011;62291;47.554;8.504;2024-03-07T00:19:20;36.20;;;23.08;;
73938;SDS011;62291;47.554;8.504;2024-03-07T00:21:46;37.80;;;22.73;;
73938;SDS011;62291;47.554;8.504;2024-03-07T00:24:12;35.72;;;22.90;;
73938;SDS011;62291;47.554;8.504;2024-03-07T00:26:41;38.08;;;23.70;;
73938;SDS011;62291;47.554;8.504;2024-03-07T00:29:07;37.38;;;22.65;;
73938;SDS011;62291;47.554;8.504;2024-03-07T00:31:33;35.08;;;22.92;;
73938;SDS011;62291;47.554;8.504;2024-03-07T00:33:59;35.22;;;22.50;;
73938;SDS011;62291;47.554;8.504;2024-03-07T00:36:24;39.97;;;25.20;;
73938;SDS011;62291;47.554;8.504;2024-03-07T00:38:51;37.60;;;23.58;;
73938;SDS011;62291;47.554;8.504;2024-03-07T00:41:17;34.03;;;22.45;;
73938;SDS011;62291;47.554;8.504;2024-03-07T00:43:44;36.40;;;23.05;;
73938;SDS011;62291;47.554;8.504;2024-03-07T00:46:10;38.92;;;23.90;;
73938;SDS011;62291;47.554;8.504;2024-03-07T00:48:36;36.75;;;23.02;;
73938;SDS011;62291;47.554;8.504;2024-03-07T00:51:02;36.17;;;22.90;;
73938;SDS011;62291;47.554;8.504;2024-03-07T00:53:31;36.65;;;23.17;;
73938;SDS011;62291;47.554;8.504;2024-03-07T00:55:57;38.17;;;23.50;;
73938;SDS011;62291;47.554;8.504;2024-03-07T00:58:23;37.08;;;23.83;;
73938;SDS011;62291;47.554;8.504;2024-03-07T01:00:48;37.25;;;23.08;;
73938;SDS011;62291;47.554;8.504;2024-03-07T01:03:14;40.78;;;23.00;;
73938;SDS011;62291;47.554;8.504;2024-03-07T01:05:42;35.90;;;23.48;;
73938;SDS011;62291;47.554;8.504;2024-03-07T01:08:08;35.45;;;22.75;;
73938;SDS011;62291;47.554;8.504;2024-03-07T01:10:34;36.22;;;23.02;;
73938;SDS011;62291;47.554;8.504;2024-03-07T01:13:00;35.50;;;23.02;;
73938;SDS011;62291;47.554;8.504;2024-03-07T01:15:27;35.65;;;23.23;;
73938;SDS011;62291;47.554;8.504;2024-03-07T01:17:53;36.20;;;23.95;;
73938;SDS011;62291;47.554;8.504;2024-03-07T01:20:19;37.97;;;24.00;;
73938;SDS011;62291;47.554;8.504;2024-03-07T01:22:46;36.75;;;23.73;;
73938;SDS011;62291;47.554;8.504;2024-03-07T01:25:12;35.92;;;23.98;;
73938;SDS011;62291;47.554;8.504;2024-03-07T01:27:38;36.20;;;23.58;;
73938;SDS011;62291;47.554;8.504;2024-03-07T01:30:04;38.92;;;23.20;;
73938;SDS011;62291;47.554;8.504;2024-03-07T01:32:33;36.67;;;23.73;;
73938;SDS011;62291;47.554;8.504;2024-03-07T01:34:59;37.08;;;23.80;;
73938;SDS011;62291;47.554;8.504;2024-03-07T01:37:25;35.22;;;22.98;;
73938;SDS011;62291;47.554;8.504;2024-03-07T01:39:50;35.47;;;22.88;;
73938;SDS011;62291;47.554;8.504;2024-03-07T01:42:16;36.65;;;23.77;;
73938;SDS011;62291;47.554;8.504;2024-03-07T01:44:42;34.70;;;22.55;;
73938;SDS011;62291;47.554;8.504;2024-03-07T01:47:09;37.70;;;24.25;;
73938;SDS011;62291;47.554;8.504;2024-03-07T01:49:35;41.13;;;24.42;;
73938;SDS011;62291;47.554;8.504;2024-03-07T01:52:01;38.58;;;23.65;;
73938;SDS011;62291;47.554;8.504;2024-03-07T01:54:27;37.40;;;23.35;;
73938;SDS011;62291;47.554;8.504;2024-03-07T01:56:53;40.80;;;24.65;;
73938;SDS011;62291;47.554;8.504;2024-03-07T01:59:20;38.72;;;23.95;;
73938;SDS011;62291;47.554;8.504;2024-03-07T02:01:47;38.38;;;23.25;;
73938;SDS011;62291;47.554;8.504;2024-03-07T02:04:13;37.30;;;23.45;;
73938;SDS011;62291;47.554;8.504;2024-03-07T02:06:39;39.90;;;24.20;;
73938;SDS011;62291;47.554;8.504;2024-03-07T02:09:05;42.80;;;24.80;;
73938;SDS011;62291;47.554;8.504;2024-03-07T02:11:32;35.92;;;23.48;;
73938;SDS011;62291;47.554;8.504;2024-03-07T02:13:57;42.17;;;25.25;;
73938;SDS011;62291;47.554;8.504;2024-03-07T02:16:24;41.13;;;25.02;;
73938;SDS011;62291;47.554;8.504;2024-03-07T02:18:50;40.45;;;24.88;;
73938;SDS011;62291;47.554;8.504;2024-03-07T02:21:16;41.70;;;25.48;;
73938;SDS011;62291;47.554;8.504;2024-03-07T02:23:41;43.38;;;25.83;;
73938;SDS011;62291;47.554;8.504;2024-03-07T02:26:07;47.33;;;25.92;;
73938;SDS011;62291;47.554;8.504;2024-03-07T02:28:33;44.03;;;24.77;;
73938;SDS011;62291;47.554;8.504;2024-03-07T02:31:00;43.15;;;25.42;;
73938;SDS011;62291;47.554;8.504;2024-03-07T02:33:25;47.28;;;25.42;;
73938;SDS011;62291;47.554;8.504;2024-03-07T02:35:51;50.80;;;27.38;;
73938;SDS011;62291;47.554;8.504;2024-03-07T02:38:17;50.97;;;26.38;;
73938;SDS011;62291;47.554;8.504;2024-03-07T02:40:44;39.88;;;24.20;;
73938;SDS011;62291;47.554;8.504;2024-03-07T02:43:11;43.35;;;23.77;;
73938;SDS011;62291;47.554;8.504;2024-03-07T02:45:37;42.67;;;24.95;;
73938;SDS011;62291;47.554;8.504;2024-03-07T02:48:03;45.40;;;24.73;;
73938;SDS011;62291;47.554;8.504;2024-03-07T02:50:31;43.13;;;25.25;;
73938;SDS011;62291;47.554;8.504;2024-03-07T02:52:57;46.53;;;25.60;;
73938;SDS011;62291;47.554;8.504;2024-03-07T02:55:22;52.28;;;28.60;;
73938;SDS011;62291;47.554;8.504;2024-03-07T02:57:49;54.72;;;27.95;;
73938;SDS011;62291;47.554;8.504;2024-03-07T03:00:15;52.35;;;27.80;;
73938;SDS011;62291;47.554;8.504;2024-03-07T03:02:51;51.17;;;27.70;;
73938;SDS011;62291;47.554;8.504;2024-03-07T03:05:17;48.22;;;26.20;;
73938;SDS011;62291;47.554;8.504;2024-03-07T03:07:44;47.13;;;27.25;;
73938;SDS011;62291;47.554;8.504;2024-03-07T03:10:16;43.08;;;24.70;;
73938;SDS011;62291;47.554;8.504;2024-03-07T03:12:42;42.88;;;25.80;;
73938;SDS011;62291;47.554;8.504;2024-03-07T03:15:09;46.75;;;26.20;;
73938;SDS011;62291;47.554;8.504;2024-03-07T03:17:36;46.30;;;25.92;;
73938;SDS011;62291;47.554;8.504;2024-03-07T03:20:02;51.05;;;27.02;;
73938;SDS011;62291;47.554;8.504;2024-03-07T03:22:40;45.85;;;25.40;;
73938;SDS011;62291;47.554;8.504;2024-03-07T03:25:05;40.97;;;23.58;;
73938;SDS011;62291;47.554;8.504;2024-03-07T03:27:32;45.88;;;24.10;;
73938;SDS011;62291;47.554;8.504;2024-03-07T03:29:57;44.53;;;25.30;;
73938;SDS011;62291;47.554;8.504;2024-03-07T03:32:25;45.70;;;24.90;;
73938;SDS011;62291;47.554;8.504;2024-03-07T03:34:51;42.55;;;23.83;;
73938;SDS011;62291;47.554;8.504;2024-03-07T03:37:17;40.65;;;23.25;;
73938;SDS011;62291;47.554;8.504;2024-03-07T03:39:43;38.55;;;23.20;;
73938;SDS011;62291;47.554;8.504;2024-03-07T03:42:11;38.72;;;22.52;;
73938;SDS011;62291;47.554;8.504;2024-03-07T03:44:37;33.05;;;20.80;;
73938;SDS011;62291;47.554;8.504;2024-03-07T03:47:02;34.08;;;20.67;;
73938;SDS011;62291;47.554;8.504;2024-03-07T03:49:29;34.40;;;20.80;;
73938;SDS011;62291;47.554;8.504;2024-03-07T03:51:54;34.22;;;20.73;;
73938;SDS011;62291;47.554;8.504;2024-03-07T03:54:20;32.67;;;19.70;;
73938;SDS011;62291;47.554;8.504;2024-03-07T03:56:46;32.25;;;19.63;;
73938;SDS011;62291;47.554;8.504;2024-03-07T03:59:11;33.58;;;19.60;;
73938;SDS011;62291;47.554;8.504;2024-03-07T04:01:37;32.03;;;20.05;;
73938;SDS011;62291;47.554;8.504;2024-03-07T04:04:03;32.05;;;19.40;;
73938;SDS011;62291;47.554;8.504;2024-03-07T04:06:30;31.02;;;19.25;;
73938;SDS011;62291;47.554;8.504;2024-03-07T04:08:56;36.13;;;20.70;;
73938;SDS011;62291;47.554;8.504;2024-03-07T04:11:21;37.13;;;20.95;;
73938;SDS011;62291;47.554;8.504;2024-03-07T04:13:47;47.83;;;24.70;;
73938;SDS011;62291;47.554;8.504;2024-03-07T04:16:13;46.15;;;23.65;;
73938;SDS011;62291;47.554;8.504;2024-03-07T04:18:39;45.80;;;22.45;;
73938;SDS011;62291;47.554;8.504;2024-03-07T04:21:05;44.60;;;22.90;;
73938;SDS011;62291;47.554;8.504;2024-03-07T04:23:32;43.00;;;21.27;;
73938;SDS011;62291;47.554;8.504;2024-03-07T04:25:58;50.30;;;23.88;;
73938;SDS011;62291;47.554;8.504;2024-03-07T04:28:23;43.40;;;19.98;;
73938;SDS011;62291;47.554;8.504;2024-03-07T04:30:49;38.55;;;19.27;;
73938;SDS011;62291;47.554;8.504;2024-03-07T04:33:15;47.97;;;23.88;;
73938;SDS011;62291;47.554;8.504;2024-03-07T04:35:40;45.67;;;22.67;;
73938;SDS011;62291;47.554;8.504;2024-03-07T04:38:06;46.72;;;24.02;;
73938;SDS011;62291;47.554;8.504;2024-03-07T04:40:36;47.72;;;24.35;;
73938;SDS011;62291;47.554;8.504;2024-03-07T04:43:02;46.80;;;24.02;;
73938;SDS011;62291;47.554;8.504;2024-03-07T04:45:28;45.85;;;23.65;;
73938;SDS011;62291;47.554;8.504;2024-03-07T04:47:54;47.13;;;21.98;;
73938;SDS011;62291;47.554;8.504;2024-03-07T04:50:20;53.90;;;24.98;;
73938;SDS011;62291;47.554;8.504;2024-03-07T04:52:45;48.30;;;22.70;;
73938;SDS011;62291;47.554;8.504;2024-03-07T04:55:11;50.88;;;22.92;;
73938;SDS011;62291;47.554;8.504;2024-03-07T04:57:38;50.67;;;23.17;;
73938;SDS011;62291;47.554;8.504;2024-03-07T05:00:12;52.95;;;25.73;;
73938;SDS011;62291;47.554;8.504;2024-03-07T05:02:42;54.58;;;24.60;;
73938;SDS011;62291;47.554;8.504;2024-03-07T05:05:09;52.97;;;23.95;;
73938;SDS011;62291;47.554;8.504;2024-03-07T05:07:35;55.10;;;25.08;;
73938;SDS011;62291;47.554;8.504;2024-03-07T05:10:04;57.35;;;25.45;;
73938;SDS011;62291;47.554;8.504;2024-03-07T05:12:31;49.38;;;22.35;;
73938;SDS011;62291;47.554;8.504;2024-03-07T05:14:57;50.88;;;21.73;;
73938;SDS011;62291;47.554;8.504;2024-03-07T05:17:23;50.70;;;23.35;;
73938;SDS011;62291;47.554;8.504;2024-03-07T05:19:49;44.58;;;22.63;;
73938;SDS011;62291;47.554;8.504;2024-03-07T05:22:15;51.42;;;24.05;;
73938;SDS011;62291;47.554;8.504;2024-03-07T05:24:41;53.97;;;25.40;;
73938;SDS011;62291;47.554;8.504;2024-03-07T05:27:07;55.95;;;26.23;;
73938;SDS011;62291;47.554;8.504;2024-03-07T05:29:36;62.30;;;27.27;;
73938;SDS011;62291;47.554;8.504;2024-03-07T05:32:19;51.72;;;24.10;;
73938;SDS011;62291;47.554;8.504;2024-03-07T05:34:49;51.92;;;23.20;;
73938;SDS011;62291;47.554;8.504;2024-03-07T05:37:15;57.35;;;26.15;;
73938;SDS011;62291;47.554;8.504;2024-03-07T05:39:41;53.58;;;26.48;;
73938;SDS011;62291;47.554;8.504;2024-03-07T05:42:06;53.22;;;26.67;;
73938;SDS011;62291;47.554;8.504;2024-03-07T05:44:32;61.88;;;27.20;;
73938;SDS011;62291;47.554;8.504;2024-03-07T05:46:58;67.22;;;27.98;;
73938;SDS011;62291;47.554;8.504;2024-03-07T05:49:24;61.45;;;27.40;;
73938;SDS011;62291;47.554;8.504;2024-03-07T05:51:50;57.20;;;27.25;;
73938;SDS011;62291;47.554;8.504;2024-03-07T05:54:15;53.47;;;27.25;;
73938;SDS011;62291;47.554;8.504;2024-03-07T05:56:41;57.70;;;26.05;;
73938;SDS011;62291;47.554;8.504;2024-03-07T05:59:07;50.08;;;25.13;;
73938;SDS011;62291;47.554;8.504;2024-03-07T06:01:36;47.22;;;24.52;;
73938;SDS011;62291;47.554;8.504;2024-03-07T06:04:03;39.05;;;20.67;;
73938;SDS011;62291;47.554;8.504;2024-03-07T06:06:30;40.63;;;21.52;;
73938;SDS011;62291;47.554;8.504;2024-03-07T06:09:19;37.00;;;20.10;;
73938;SDS011;62291;47.554;8.504;2024-03-07T06:11:47;34.95;;;18.25;;
73938;SDS011;62291;47.554;8.504;2024-03-07T06:14:13;38.70;;;20.20;;
73938;SDS011;62291;47.554;8.504;2024-03-07T06:16:39;36.60;;;19.75;;
73938;SDS011;62291;47.554;8.504;2024-03-07T06:19:06;38.17;;;22.20;;
73938;SDS011;62291;47.554;8.504;2024-03-07T06:21:33;37.60;;;20.42;;
73938;SDS011;62291;47.554;8.504;2024-03-07T06:24:00;36.50;;;19.90;;
73938;SDS011;62291;47.554;8.504;2024-03-07T06:26:28;40.78;;;19.50;;
73938;SDS011;62291;47.554;8.504;2024-03-07T06:29:13;35.90;;;20.70;;
73938;SDS011;62291;47.554;8.504;2024-03-07T06:31:41;39.10;;;21.67;;
73938;SDS011;62291;47.554;8.504;2024-03-07T06:34:07;31.88;;;18.08;;
73938;SDS011;62291;47.554;8.504;2024-03-07T06:36:33;34.40;;;19.02;;
73938;SDS011;62291;47.554;8.504;2024-03-07T06:38:59;30.23;;;16.95;;
73938;SDS011;62291;47.554;8.504;2024-03-07T06:41:25;30.95;;;18.38;;
73938;SDS011;62291;47.554;8.504;2024-03-07T06:43:51;31.73;;;19.48;;
73938;SDS011;62291;47.554;8.504;2024-03-07T06:46:20;29.83;;;16.33;;
73938;SDS011;62291;47.554;8.504;2024-03-07T06:48:46;33.80;;;20.10;;
73938;SDS011;62291;47.554;8.504;2024-03-07T06:51:12;32.15;;;20.25;;
73938;SDS011;62291;47.554;8.504;2024-03-07T06:53:38;33.78;;;19.27;;
73938;SDS011;62291;47.554;8.504;2024-03-07T06:56:04;30.67;;;17.10;;
73938;SDS011;62291;47.554;8.504;2024-03-07T06:58:31;31.00;;;18.77;;
73938;SDS011;62291;47.554;8.504;2024-03-07T07:00:57;30.45;;;18.30;;
73938;SDS011;62291;47.554;8.504;2024-03-07T07:03:25;31.13;;;18.85;;
73938;SDS011;62291;47.554;8.504;2024-03-07T07:05:53;30.13;;;17.60;;
73938;SDS011;62291;47.554;8.504;2024-03-07T07:08:19;31.20;;;19.33;;
73938;SDS011;62291;47.554;8.504;2024-03-07T07:10:45;31.77;;;18.95;;
73938;SDS011;62291;47.554;8.504;2024-03-07T07:13:12;30.80;;;19.45;;
73938;SDS011;62291;47.554;8.504;2024-03-07T07:15:38;31.08;;;19.63;;
73938;SDS011;62291;47.554;8.504;2024-03-07T07:18:04;31.58;;;18.17;;
73938;SDS011;62291;47.554;8.504;2024-03-07T07:20:32;27.40;;;15.65;;
73938;SDS011;62291;47.554;8.504;2024-03-07T07:23:01;27.67;;;18.20;;
73938;SDS011;62291;47.554;8.504;2024-03-07T07:25:28;31.48;;;18.50;;
73938;SDS011;62291;47.554;8.504;2024-03-07T07:27:54;31.00;;;19.05;;
73938;SDS011;62291;47.554;8.504;2024-03-07T07:30:20;29.45;;;16.63;;
73938;SDS011;62291;47.554;8.504;2024-03-07T07:32:48;22.48;;;11.75;;
73938;SDS011;62291;47.554;8.504;2024-03-07T07:35:14;28.45;;;17.08;;
73938;SDS011;62291;47.554;8.504;2024-03-07T07:37:41;28.02;;;17.08;;
73938;SDS011;62291;47.554;8.504;2024-03-07T07:40:08;27.73;;;17.35;;
73938;SDS011;62291;47.554;8.504;2024-03-07T07:42:38;31.20;;;18.52;;
73938;SDS011;62291;47.554;8.504;2024-03-07T07:45:05;28.25;;;15.77;;
73938;SDS011;62291;47.554;8.504;2024-03-07T07:47:32;32.38;;;17.95;;
73938;SDS011;62291;47.554;8.504;2024-03-07T07:49:58;29.23;;;18.30;;
73938;SDS011;62291;47.554;8.504;2024-03-07T07:52:23;26.80;;;14.55;;
73938;SDS011;62291;47.554;8.504;2024-03-07T07:54:49;27.85;;;17.15;;
73938;SDS011;62291;47.554;8.504;2024-03-07T07:57:15;29.00;;;16.85;;
73938;SDS011;62291;47.554;8.504;2024-03-07T07:59:40;29.00;;;16.23;;
73938;SDS011;62291;47.554;8.504;2024-03-07T08:02:06;29.10;;;17.33;;
73938;SDS011;62291;47.554;8.504;2024-03-07T08:04:31;29.98;;;17.08;;
73938;SDS011;62291;47.554;8.504;2024-03-07T08:06:57;30.08;;;18.35;;
73938;SDS011;62291;47.554;8.504;2024-03-07T08:09:23;31.25;;;18.63;;
73938;SDS011;62291;47.554;8.504;2024-03-07T08:11:49;26.95;;;16.55;;
73938;SDS011;62291;47.554;8.504;2024-03-07T08:14:17;28.90;;;14.85;;
73938;SDS011;62291;47.554;8.504;2024-03-07T08:16:43;30.45;;;16.13;;
73938;SDS011;62291;47.554;8.504;2024-03-07T08:19:13;31.00;;;16.95;;
73938;SDS011;62291;47.554;8.504;2024-03-07T08:21:39;33.60;;;17.08;;
73938;SDS011;62291;47.554;8.504;2024-03-07T08:24:05;33.03;;;18.65;;
73938;SDS011;62291;47.554;8.504;2024-03-07T08:26:35;30.88;;;16.98;;
73938;SDS011;62291;47.554;8.504;2024-03-07T08:29:02;30.33;;;16.40;;
73938;SDS011;62291;47.554;8.504;2024-03-07T08:31:28;30.05;;;16.30;;
73938;SDS011;62291;47.554;8.504;2024-03-07T08:33:53;28.17;;;13.90;;
73938;SDS011;62291;47.554;8.504;2024-03-07T08:36:19;34.72;;;19.23;;
73938;SDS011;62291;47.554;8.504;2024-03-07T08:38:45;23.88;;;11.90;;
73938;SDS011;62291;47.554;8.504;2024-03-07T08:41:11;29.67;;;16.98;;
73938;SDS011;62291;47.554;8.504;2024-03-07T08:43:37;33.75;;;19.13;;
73938;SDS011;62291;47.554;8.504;2024-03-07T08:46:02;32.00;;;17.55;;
73938;SDS011;62291;47.554;8.504;2024-03-07T08:48:28;32.92;;;18.20;;
73938;SDS011;62291;47.554;8.504;2024-03-07T08:50:54;31.73;;;17.38;;
73938;SDS011;62291;47.554;8.504;2024-03-07T08:53:19;35.65;;;19.67;;
73938;SDS011;62291;47.554;8.504;2024-03-07T08:55:45;30.88;;;18.23;;
73938;SDS011;62291;47.554;8.504;2024-03-07T08:58:11;28.63;;;16.70;;
73938;SDS011;62291;47.554;8.504;2024-03-07T09:00:37;30.45;;;17.83;;
73938;SDS011;62291;47.554;8.504;2024-03-07T09:03:02;28.98;;;15.80;;
73938;SDS011;62291;47.554;8.504;2024-03-07T09:05:29;30.83;;;17.23;;
73938;SDS011;62291;47.554;8.504;2024-03-07T09:07:58;28.38;;;15.52;;
73938;SDS011;62291;47.554;8.504;2024-03-07T09:10:24;32.25;;;17.58;;
73938;SDS011;62291;47.554;8.504;2024-03-07T09:12:51;29.52;;;16.02;;
73938;SDS011;62291;47.554;8.504;2024-03-07T09:15:17;30.17;;;17.42;;
73938;SDS011;62291;47.554;8.504;2024-03-07T09:17:44;30.38;;;15.90;;
73938;SDS011;62291;47.554;8.504;2024-03-07T09:20:10;30.08;;;17.45;;
73938;SDS011;62291;47.554;8.504;2024-03-07T09:22:42;29.60;;;16.00;;
73938;SDS011;62291;47.554;8.504;2024-03-07T09:25:09;29.38;;;17.00;;
73938;SDS011;62291;47.554;8.504;2024-03-07T09:27:35;28.83;;;17.48;;
73938;SDS011;62291;47.554;8.504;2024-03-07T09:30:02;29.48;;;16.02;;
73938;SDS011;62291;47.554;8.504;2024-03-07T09:32:29;29.58;;;17.17;;
73938;SDS011;62291;47.554;8.504;2024-03-07T09:34:57;19.80;;;8.68;;
73938;SDS011;62291;47.554;8.504;2024-03-07T09:37:23;25.92;;;14.70;;
73938;SDS011;62291;47.554;8.504;2024-03-07T09:39:49;28.13;;;15.95;;
73938;SDS011;62291;47.554;8.504;2024-03-07T09:42:16;25.80;;;14.13;;
73938;SDS011;62291;47.554;8.504;2024-03-07T09:44:42;28.10;;;16.33;;
73938;SDS011;62291;47.554;8.504;2024-03-07T09:47:10;28.27;;;16.42;;
73938;SDS011;62291;47.554;8.504;2024-03-07T09:49:38;25.63;;;13.82;;
73938;SDS011;62291;47.554;8.504;2024-03-07T09:52:04;31.52;;;16.52;;
73938;SDS011;62291;47.554;8.504;2024-03-07T09:54:36;28.33;;;17.27;;
73938;SDS011;62291;47.554;8.504;2024-03-07T09:57:03;28.48;;;16.13;;
73938;SDS011;62291;47.554;8.504;2024-03-07T09:59:34;24.70;;;12.98;;
73938;SDS011;62291;47.554;8.504;2024-03-07T10:02:01;27.58;;;15.50;;
73938;SDS011;62291;47.554;8.504;2024-03-07T10:04:51;27.55;;;15.35;;
73938;SDS011;62291;47.554;8.504;2024-03-07T10:07:17;25.63;;;16.25;;
73938;SDS011;62291;47.554;8.504;2024-03-07T10:09:43;26.35;;;16.38;;
73938;SDS011;62291;47.554;8.504;2024-03-07T10:12:10;27.30;;;14.77;;
73938;SDS011;62291;47.554;8.504;2024-03-07T10:14:47;28.30;;;16.63;;
73938;SDS011;62291;47.554;8.504;2024-03-07T10:17:15;30.13;;;16.23;;
73938;SDS011;62291;47.554;8.504;2024-03-07T10:19:47;28.83;;;15.40;;
73938;SDS011;62291;47.554;8.504;2024-03-07T10:22:15;30.60;;;18.27;;
73938;SDS011;62291;47.554;8.504;2024-03-07T10:24:49;30.65;;;18.98;;
73938;SDS011;62291;47.554;8.504;2024-03-07T10:27:22;33.95;;;20.30;;
73938;SDS011;62291;47.554;8.504;2024-03-07T10:29:49;34.53;;;18.23;;
73938;SDS011;62291;47.554;8.504;2024-03-07T10:32:21;30.55;;;18.33;;
73938;SDS011;62291;47.554;8.504;2024-03-07T10:34:49;31.83;;;19.70;;
73938;SDS011;62291;47.554;8.504;2024-03-07T10:37:16;33.35;;;18.05;;
73938;SDS011;62291;47.554;8.504;2024-03-07T10:39:45;30.67;;;17.85;;
73938;SDS011;62291;47.554;8.504;2024-03-07T10:42:17;32.33;;;20.35;;
73938;SDS011;62291;47.554;8.504;2024-03-07T10:44:45;34.65;;;19.45;;
73938;SDS011;62291;47.554;8.504;2024-03-07T10:47:19;28.80;;;17.23;;
73938;SDS011;62291;47.554;8.504;2024-03-07T10:53:10;27.23;;;17.17;;
73938;SDS011;62291;47.554;8.504;2024-03-07T10:59:07;28.40;;;17.90;;
73938;SDS011;62291;47.554;8.504;2024-03-07T11:01:49;27.85;;;17.10;;
73938;SDS011;62291;47.554;8.504;2024-03-07T11:04:29;30.67;;;16.73;;
73938;SDS011;62291;47.554;8.504;2024-03-07T11:06:56;30.20;;;17.67;;
73938;SDS011;62291;47.554;8.504;2024-03-07T11:09:24;31.65;;;18.80;;
73938;SDS011;62291;47.554;8.504;2024-03-07T11:11:54;36.40;;;20.83;;
73938;SDS011;62291;47.554;8.504;2024-03-07T11:14:21;32.65;;;20.45;;
73938;SDS011;62291;47.554;8.504;2024-03-07T11:16:48;38.15;;;22.27;;
73938;SDS011;62291;47.554;8.504;2024-03-07T11:19:27;33.00;;;21.50;;
73938;SDS011;62291;47.554;8.504;2024-03-07T11:21:55;31.88;;;18.88;;
73938;SDS011;62291;47.554;8.504;2024-03-07T11:26:57;31.25;;;19.10;;
73938;SDS011;62291;47.554;8.504;2024-03-07T11:32:11;26.20;;;16.88;;
73938;SDS011;62291;47.554;8.504;2024-03-07T11:34:44;26.08;;;16.98;;
73938;SDS011;62291;47.554;8.504;2024-03-07T11:37:17;25.58;;;16.92;;
73938;SDS011;62291;47.554;8.504;2024-03-07T11:39:47;29.00;;;17.40;;
73938;SDS011;62291;47.554;8.504;2024-03-07T11:42:28;30.50;;;18.58;;
73938;SDS011;62291;47.554;8.504;2024-03-07T11:44:55;36.00;;;21.25;;
73938;SDS011;62291;47.554;8.504;2024-03-07T11:47:23;35.45;;;21.63;;
73938;SDS011;62291;47.554;8.504;2024-03-07T11:49:50;37.78;;;21.42;;
73938;SDS011;62291;47.554;8.504;2024-03-07T11:52:17;34.72;;;21.67;;
73938;SDS011;62291;47.554;8.504;2024-03-07T11:54:43;62.58;;;33.58;;
73938;SDS011;62291;47.554;8.504;2024-03-07T11:57:18;34.97;;;21.77;;
73938;SDS011;62291;47.554;8.504;2024-03-07T12:02:13;36.08;;;22.38;;
73938;SDS011;62291;47.554;8.504;2024-03-07T12:04:46;36.90;;;21.02;;
73938;SDS011;62291;47.554;8.504;2024-03-07T12:07:13;38.33;;;22.40;;
73938;SDS011;62291;47.554;8.504;2024-03-07T12:09:42;32.42;;;20.73;;
73938;SDS011;62291;47.554;8.504;2024-03-07T12:12:15;35.20;;;20.73;;
73938;SDS011;62291;47.554;8.504;2024-03-07T12:14:46;34.58;;;21.02;;
73938;SDS011;62291;47.554;8.504;2024-03-07T12:17:13;34.35;;;21.08;;
73938;SDS011;62291;47.554;8.504;2024-03-07T12:19:41;30.90;;;18.92;;
73938;SDS011;62291;47.554;8.504;2024-03-07T12:22:08;29.27;;;16.95;;
73938;SDS011;62291;47.554;8.504;2024-03-07T12:24:38;34.80;;;20.90;;
73938;SDS011;62291;47.554;8.504;2024-03-07T12:27:09;33.45;;;20.40;;
73938;SDS011;62291;47.554;8.504;2024-03-07T12:29:39;32.35;;;21.20;;
73938;SDS011;62291;47.554;8.504;2024-03-07T12:32:07;36.10;;;19.73;;
73938;SDS011;62291;47.554;8.504;2024-03-07T12:34:35;31.55;;;19.85;;
73938;SDS011;62291;47.554;8.504;2024-03-07T12:37:10;29.83;;;19.48;;
73938;SDS011;62291;47.554;8.504;2024-03-07T12:39:36;28.73;;;18.75;;
73938;SDS011;62291;47.554;8.504;2024-03-07T12:42:15;33.20;;;20.35;;
73938;SDS011;62291;47.554;8.504;2024-03-07T12:44:45;28.80;;;19.17;;
73938;SDS011;62291;47.554;8.504;2024-03-07T12:47:11;30.92;;;19.20;;
73938;SDS011;62291;47.554;8.504;2024-03-07T12:49:38;32.05;;;19.85;;
73938;SDS011;62291;47.554;8.504;2024-03-07T12:52:08;29.88;;;19.45;;
73938;SDS011;62291;47.554;8.504;2024-03-07T12:54:36;29.20;;;19.23;;
73938;SDS011;62291;47.554;8.504;2024-03-07T12:57:08;31.67;;;18.83;;
73938;SDS011;62291;47.554;8.504;2024-03-07T12:59:40;30.20;;;18.88;;
73938;SDS011;62291;47.554;8.504;2024-03-07T13:02:07;28.83;;;18.83;;
73938;SDS011;62291;47.554;8.504;2024-03-07T13:04:33;30.42;;;18.48;;
73938;SDS011;62291;47.554;8.504;2024-03-07T13:06:59;30.65;;;19.73;;
73938;SDS011;62291;47.554;8.504;2024-03-07T13:09:29;28.90;;;16.95;;
73938;SDS011;62291;47.554;8.504;2024-03-07T13:11:58;33.28;;;18.73;;
73938;SDS011;62291;47.554;8.504;2024-03-07T13:14:28;29.80;;;19.65;;
73938;SDS011;62291;47.554;8.504;2024-03-07T13:17:00;33.72;;;19.45;;
73938;SDS011;62291;47.554;8.504;2024-03-07T13:19:30;30.38;;;19.48;;
73938;SDS011;62291;47.554;8.504;2024-03-07T13:21:55;32.00;;;19.20;;
73938;SDS011;62291;47.554;8.504;2024-03-07T13:24:25;30.38;;;18.02;;
73938;SDS011;62291;47.554;8.504;2024-03-07T13:26:52;31.08;;;19.67;;
73938;SDS011;62291;47.554;8.504;2024-03-07T13:29:18;31.02;;;18.23;;
73938;SDS011;62291;47.554;8.504;2024-03-07T13:31:50;28.13;;;18.30;;
73938;SDS011;62291;47.554;8.504;2024-03-07T13:34:17;31.42;;;20.48;;
73938;SDS011;62291;47.554;8.504;2024-03-07T13:36:43;30.38;;;18.25;;
73938;SDS011;62291;47.554;8.504;2024-03-07T13:39:10;31.95;;;20.63;;
73938;SDS011;62291;47.554;8.504;2024-03-07T13:41:46;31.15;;;18.92;;
73938;SDS011;62291;47.554;8.504;2024-03-07T13:44:16;28.05;;;18.77;;
73938;SDS011;62291;47.554;8.504;2024-03-07T13:46:44;32.38;;;19.17;;
73938;SDS011;62291;47.554;8.504;2024-03-07T13:49:09;37.60;;;23.55;;
73938;SDS011;62291;47.554;8.504;2024-03-07T13:51:38;44.33;;;26.77;;
73938;SDS011;62291;47.554;8.504;2024-03-07T13:54:16;46.95;;;28.35;;
73938;SDS011;62291;47.554;8.504;2024-03-07T14:03:02;50.03;;;28.85;;
73938;SDS011;62291;47.554;8.504;2024-03-07T14:11:48;49.88;;;29.23;;
73938;SDS011;62291;47.554;8.504;2024-03-07T14:28:14;45.28;;;25.42;;
73938;SDS011;62291;47.554;8.504;2024-03-07T14:31:00;50.50;;;29.17;;
73938;SDS011;62291;47.554;8.504;2024-03-07T14:33:35;46.42;;;25.35;;
73938;SDS011;62291;47.554;8.504;2024-03-07T14:36:32;43.13;;;22.52;;
73938;SDS011;62291;47.554;8.504;2024-03-07T14:39:10;43.95;;;24.95;;
73938;SDS011;62291;47.554;8.504;2024-03-07T14:44:26;43.67;;;26.52;;
73938;SDS011;62291;47.554;8.504;2024-03-07T14:47:14;46.70;;;27.00;;
73938;SDS011;62291;47.554;8.504;2024-03-07T14:49:41;46.08;;;26.80;;
73938;SDS011;62291;47.554;8.504;2024-03-07T14:52:07;40.65;;;23.73;;
73938;SDS011;62291;47.554;8.504;2024-03-07T14:54:38;46.83;;;26.67;;
73938;SDS011;62291;47.554;8.504;2024-03-07T14:57:05;42.40;;;24.30;;
73938;SDS011;62291;47.554;8.504;2024-03-07T14:59:35;43.17;;;21.75;;
73938;SDS011;62291;47.554;8.504;2024-03-07T15:02:01;41.72;;;24.25;;
73938;SDS011;62291;47.554;8.504;2024-03-07T15:04:29;42.58;;;24.17;;
73938;SDS011;62291;47.554;8.504;2024-03-07T15:06:57;46.40;;;27.85;;
73938;SDS011;62291;47.554;8.504;2024-03-07T15:09:24;41.42;;;21.65;;